CheckWX is a tool to help pilots better visualize weather data.  It is not intended as a substitute for an official pre-flight weather briefing.

19:16:25 UTC

EHQE METAR
Hoorn-a Sea
Hoorn-a Sea, The Netherlands
Current

51 mins ago

EHQE 261825Z AUTO 20024KT //// // VV/// //////CB 13/12 Q1007 RE// W///H///
Observed
May-26 @ 18:25 UTC
Wind
  • 200° at 24 KTS
Visibility
Flight Rules
LIFR
Cloud Levels
  • Vertical visibility
Temperature
13°C / 55°F
Dewpoint
12°C / 54°F
Humidity
94%
Altimeter
29.73" Hg
Pressure
1006.92 hPa
Previous

1 hour ago

EHQE 261755Z AUTO 19026KT //// // VV/// //////CB 12/12 Q1007 RE// W///H///
Observed
May-26 @ 17:55 UTC
Wind
  • 190° at 26 KTS
Visibility
Flight Rules
LIFR
Cloud Levels
  • Vertical visibility
Temperature
12°C / 54°F
Dewpoint
12°C / 54°F
Humidity
100%
Altimeter
29.73" Hg
Pressure
1006.92 hPa
Previous

2 hours ago

EHQE 261725Z AUTO 19026KT //// // VV/// //////CB 12/12 Q1007 RE// W///H///
Observed
May-26 @ 17:25 UTC
Wind
  • 190° at 26 KTS
Visibility
Flight Rules
LIFR
Cloud Levels
  • Vertical visibility
Temperature
12°C / 54°F
Dewpoint
12°C / 54°F
Humidity
100%
Altimeter
29.73" Hg
Pressure
1006.92 hPa